createdAt,value
2023-02-25T00:00:45.541Z,2.92
2023-02-25T00:02:02.958Z,2.93
2023-02-25T00:03:05.369Z,2.95
2023-02-25T00:04:08.088Z,2.97
2023-02-25T00:05:09.853Z,2.97
2023-02-25T00:06:13.745Z,2.97
2023-02-25T00:07:15.814Z,2.97
2023-02-25T00:08:18.410Z,2.97
2023-02-25T00:09:21.381Z,2.95
2023-02-25T00:10:23.986Z,3.01
2023-02-25T00:11:25.786Z,3.05
2023-02-25T00:12:29.297Z,3.05
2023-02-25T00:13:30.951Z,3.07
2023-02-25T00:14:33.551Z,3.01
2023-02-25T00:15:35.224Z,2.97
2023-02-25T00:16:37.859Z,3.05
2023-02-25T00:17:40.096Z,3.16
2023-02-25T00:18:44.411Z,3.08
2023-02-25T00:19:46.135Z,3.08
2023-02-25T00:20:48.771Z,3.10
2023-02-25T00:21:50.411Z,3.10
2023-02-25T00:22:53.089Z,3.13
2023-02-25T00:23:55.815Z,3.13
2023-02-25T00:25:00.851Z,3.15
2023-02-25T00:26:03.274Z,3.14
2023-02-25T00:27:05.890Z,3.15
2023-02-25T00:28:07.539Z,3.13
2023-02-25T00:29:10.145Z,3.10
2023-02-25T00:30:12.665Z,3.09
2023-02-25T00:31:20.720Z,3.10
2023-02-25T00:32:22.844Z,3.09
2023-02-25T00:33:25.683Z,3.04
2023-02-25T00:34:28.566Z,2.99
2023-02-25T00:35:31.183Z,2.96
2023-02-25T00:36:33.094Z,2.96
2023-02-25T00:37:36.463Z,2.94
2023-02-25T00:38:38.116Z,2.92
2023-02-25T00:39:43.603Z,2.92
2023-02-25T00:40:46.648Z,2.95
2023-02-25T00:41:49.247Z,3.00
2023-02-25T00:42:51.423Z,3.04
2023-02-25T00:43:54.895Z,2.98
2023-02-25T00:44:56.526Z,2.96
2023-02-25T00:46:00.000Z,2.96
2023-02-25T00:47:01.691Z,3.04
2023-02-25T00:48:04.442Z,3.05
2023-02-25T00:49:06.082Z,2.94
2023-02-25T00:50:09.730Z,2.98
2023-02-25T00:51:12.841Z,2.97
2023-02-25T00:52:15.563Z,2.98
2023-02-25T00:53:17.202Z,2.95
2023-02-25T00:54:19.802Z,2.88
2023-02-25T00:55:21.433Z,2.88
2023-02-25T00:56:26.038Z,2.88
2023-02-25T00:57:27.679Z,2.88
2023-02-25T00:58:30.274Z,2.90
2023-02-25T00:59:32.077Z,2.87
2023-02-25T01:00:46.525Z,2.86
2023-02-25T01:01:52.088Z,2.85
2023-02-25T01:02:55.102Z,2.84
2023-02-25T01:03:57.106Z,2.79
2023-02-25T01:04:59.976Z,2.79
2023-02-25T01:06:02.965Z,2.81
2023-02-25T01:07:05.786Z,2.79
2023-02-25T01:08:07.422Z,2.81
2023-02-25T01:09:13.800Z,2.85
2023-02-25T01:10:15.862Z,2.86
2023-02-25T01:11:21.075Z,2.87
2023-02-25T01:12:24.164Z,2.82
2023-02-25T01:13:26.758Z,2.85
2023-02-25T01:14:28.398Z,2.86
2023-02-25T01:15:31.448Z,2.89
2023-02-25T01:16:33.722Z,2.82
2023-02-25T01:17:36.912Z,2.77
2023-02-25T01:18:38.638Z,2.82
2023-02-25T01:19:41.235Z,2.85
2023-02-25T01:20:42.877Z,2.86
2023-02-25T01:21:46.518Z,2.80
2023-02-25T01:22:48.188Z,2.77
2023-02-25T01:23:50.849Z,2.79
2023-02-25T01:24:54.628Z,2.83
2023-02-25T01:25:57.231Z,2.83
2023-02-25T01:27:00.022Z,2.83
2023-02-25T01:28:04.170Z,2.86
2023-02-25T01:29:06.961Z,2.83
2023-02-25T01:30:11.432Z,2.81
2023-02-25T01:31:16.995Z,2.80
2023-02-25T01:32:19.817Z,2.79
2023-02-25T01:33:21.582Z,2.72
2023-02-25T01:34:24.228Z,2.72
2023-02-25T01:35:25.909Z,2.72
2023-02-25T01:36:28.847Z,2.69
2023-02-25T01:37:30.487Z,2.68
2023-02-25T01:38:33.143Z,2.66
2023-02-25T01:39:36.231Z,2.63
2023-02-25T01:40:37.900Z,2.62
2023-02-25T01:41:40.537Z,2.64
2023-02-25T01:42:42.181Z,2.65
2023-02-25T01:44:08.507Z,2.61
2023-02-25T01:45:31.011Z,2.68
2023-02-25T01:46:33.669Z,2.60
2023-02-25T01:47:36.226Z,2.63
2023-02-25T01:48:40.525Z,2.67
2023-02-25T01:49:43.366Z,2.67
2023-02-25T01:50:48.965Z,2.65
2023-02-25T01:51:51.844Z,2.60
2023-02-25T01:52:54.884Z,2.62
2023-02-25T01:53:57.077Z,2.62
2023-02-25T01:54:59.690Z,2.66
2023-02-25T01:56:01.347Z,2.67
2023-02-25T01:57:04.563Z,2.65
2023-02-25T01:58:06.190Z,2.63
2023-02-25T01:59:10.143Z,2.62
2023-02-25T02:00:15.984Z,2.67
2023-02-25T02:01:21.259Z,2.67
2023-02-25T02:02:23.380Z,2.70
2023-02-25T02:03:26.630Z,2.68
2023-02-25T02:04:28.243Z,2.74
2023-02-25T02:05:39.293Z,2.75
2023-02-25T02:06:42.207Z,2.77
2023-02-25T02:07:44.808Z,2.77
2023-02-25T02:08:46.428Z,2.75
2023-02-25T02:09:56.824Z,2.80
2023-02-25T02:10:58.640Z,2.79
2023-02-25T02:12:02.052Z,2.79
2023-02-25T02:13:03.680Z,2.78
2023-02-25T02:14:06.550Z,2.77
2023-02-25T02:15:11.557Z,2.72
2023-02-25T02:16:23.071Z,2.69
2023-02-25T02:17:25.984Z,2.70
2023-02-25T02:18:29.533Z,2.69
2023-02-25T02:19:36.645Z,2.71
2023-02-25T02:20:44.057Z,2.74
2023-02-25T02:21:52.472Z,2.76
2023-02-25T02:23:10.586Z,2.68
2023-02-25T02:24:40.984Z,2.67
2023-02-25T02:25:53.792Z,2.69
2023-02-25T02:27:00.112Z,2.72
2023-02-25T02:28:14.477Z,2.64
2023-02-25T02:29:22.720Z,2.65
2023-02-25T02:30:48.669Z,2.64
2023-02-25T02:32:07.754Z,2.64
2023-02-25T02:33:12.712Z,2.59
2023-02-25T02:34:20.868Z,2.57
2023-02-25T02:35:28.356Z,2.62
2023-02-25T02:36:32.919Z,2.61
2023-02-25T02:37:39.706Z,2.64
2023-02-25T02:38:44.220Z,2.61
2023-02-25T02:39:50.827Z,2.67
2023-02-25T02:40:54.755Z,2.68
2023-02-25T02:42:00.900Z,2.57
2023-02-25T02:43:07.158Z,2.54
2023-02-25T02:44:13.332Z,2.58
2023-02-25T02:45:18.172Z,2.66
2023-02-25T02:46:22.388Z,2.63
2023-02-25T02:47:25.945Z,2.57
2023-02-25T02:48:30.877Z,2.56
2023-02-25T02:49:35.959Z,2.58
2023-02-25T02:50:39.713Z,2.57
2023-02-25T02:51:43.905Z,2.55
2023-02-25T02:52:48.592Z,2.59
2023-02-25T02:53:52.469Z,2.54
2023-02-25T02:54:56.804Z,2.51
2023-02-25T02:56:00.813Z,2.64
2023-02-25T02:57:03.425Z,2.60
2023-02-25T02:58:07.175Z,2.61
2023-02-25T02:59:13.202Z,2.58
2023-02-25T03:00:17.694Z,2.63
2023-02-25T03:01:22.323Z,2.60
2023-02-25T03:02:26.757Z,2.62
2023-02-25T03:03:36.269Z,2.59
2023-02-25T03:04:39.423Z,2.63
2023-02-25T03:05:41.716Z,2.65
2023-02-25T03:06:45.889Z,2.61
2023-02-25T03:07:50.735Z,2.66
2023-02-25T03:08:55.965Z,2.72
2023-02-25T03:09:59.145Z,2.69
2023-02-25T03:11:01.819Z,2.72
2023-02-25T03:12:03.626Z,2.64
2023-02-25T03:13:06.226Z,2.68
2023-02-25T03:14:08.546Z,2.75
2023-02-25T03:15:11.634Z,2.79
2023-02-25T03:16:14.798Z,2.77
2023-02-25T03:17:19.163Z,2.73
2023-02-25T03:18:27.041Z,2.72
2023-02-25T03:19:32.431Z,2.72
2023-02-25T03:20:36.859Z,2.69
2023-02-25T03:21:41.686Z,2.71
2023-02-25T03:22:44.319Z,2.76
2023-02-25T03:23:47.528Z,2.80
2023-02-25T03:24:50.934Z,2.70
2023-02-25T03:25:54.170Z,2.67
2023-02-25T03:26:55.847Z,2.71
2023-02-25T03:28:00.615Z,2.73
2023-02-25T03:29:02.261Z,2.77
2023-02-25T03:30:06.500Z,2.81
2023-02-25T03:31:10.344Z,2.77
2023-02-25T03:32:13.133Z,2.77
2023-02-25T03:33:18.961Z,2.68
2023-02-25T03:34:25.112Z,2.73
2023-02-25T03:35:27.092Z,2.72
2023-02-25T03:36:31.448Z,2.63
2023-02-25T03:37:33.098Z,2.66
2023-02-25T03:38:35.705Z,2.63
2023-02-25T03:39:38.546Z,2.62
2023-02-25T03:40:41.300Z,2.59
2023-02-25T03:41:44.685Z,2.62
2023-02-25T03:42:49.036Z,2.57
2023-02-25T03:43:53.653Z,2.62
2023-02-25T03:44:57.719Z,2.67
2023-02-25T03:45:59.473Z,2.66
2023-02-25T03:47:02.264Z,2.65
2023-02-25T03:48:05.764Z,2.67
2023-02-25T03:49:08.429Z,2.62
2023-02-25T03:50:12.667Z,2.60
2023-02-25T03:51:16.395Z,2.59
2023-02-25T03:52:19.813Z,2.60
2023-02-25T03:53:22.436Z,2.64
2023-02-25T03:54:24.062Z,2.67
2023-02-25T03:55:26.676Z,2.68
2023-02-25T03:56:29.349Z,2.66
2023-02-25T03:57:35.509Z,2.63
2023-02-25T03:58:38.851Z,2.67
2023-02-25T03:59:40.495Z,2.69
2023-02-25T04:00:43.311Z,2.69
2023-02-25T04:01:46.840Z,2.59
2023-02-25T04:02:49.680Z,2.56
2023-02-25T04:03:51.372Z,2.56
2023-02-25T04:04:54.030Z,2.39
2023-02-25T04:05:57.025Z,2.39
2023-02-25T04:06:59.626Z,2.36
2023-02-25T04:08:01.282Z,2.34
2023-02-25T04:09:05.010Z,2.33
2023-02-25T04:10:07.726Z,2.35
2023-02-25T04:11:10.348Z,2.31
2023-02-25T04:12:12.203Z,2.22
2023-02-25T04:13:15.629Z,2.16
2023-02-25T04:14:18.319Z,2.20
2023-02-25T04:15:21.115Z,2.22
2023-02-25T04:16:23.160Z,2.19
2023-02-25T04:17:25.969Z,2.13
2023-02-25T04:18:27.754Z,2.20
2023-02-25T04:19:30.361Z,2.13
2023-02-25T04:20:32.638Z,2.05
2023-02-25T04:21:37.189Z,2.05
2023-02-25T04:22:38.823Z,2.14
2023-02-25T04:23:41.461Z,2.09
2023-02-25T04:24:43.105Z,2.11
2023-02-25T04:25:45.718Z,2.13
2023-02-25T04:26:47.343Z,2.19
2023-02-25T04:27:49.948Z,2.21
2023-02-25T04:28:51.648Z,2.16
2023-02-25T04:29:54.307Z,2.20
2023-02-25T04:30:56.122Z,2.21
2023-02-25T04:31:58.957Z,2.21
2023-02-25T04:33:00.633Z,2.24
2023-02-25T04:34:03.304Z,2.24
2023-02-25T04:35:06.513Z,2.20
2023-02-25T04:36:23.527Z,2.24
2023-02-25T04:37:27.923Z,2.26
2023-02-25T04:38:30.553Z,2.26
2023-02-25T04:39:32.277Z,2.26
2023-02-25T04:40:34.879Z,2.25
2023-02-25T04:41:36.528Z,2.27
2023-02-25T04:42:39.149Z,2.34
2023-02-25T04:43:40.808Z,2.25
2023-02-25T04:44:43.415Z,2.25
2023-02-25T04:45:46.722Z,2.32
2023-02-25T04:46:51.659Z,2.29
2023-02-25T04:47:54.439Z,2.24
2023-02-25T04:48:56.127Z,2.28
2023-02-25T04:49:58.739Z,2.17
2023-02-25T04:51:01.052Z,2.25
2023-02-25T04:52:03.728Z,2.18
2023-02-25T04:53:06.714Z,2.29
2023-02-25T04:54:09.337Z,2.26
2023-02-25T04:55:11.113Z,2.28
2023-02-25T04:56:13.707Z,2.27
2023-02-25T04:57:15.927Z,2.25
2023-02-25T04:58:18.526Z,2.27
2023-02-25T04:59:20.329Z,2.31
2023-02-25T05:00:24.137Z,2.29
2023-02-25T05:01:25.897Z,2.34
2023-02-25T05:02:28.565Z,2.38
2023-02-25T05:03:30.247Z,2.32
2023-02-25T05:04:32.915Z,2.30
2023-02-25T05:05:34.646Z,2.32
2023-02-25T05:06:37.310Z,2.24
2023-02-25T05:07:39.025Z,2.25
2023-02-25T05:08:43.012Z,2.21
2023-02-25T05:09:44.795Z,2.29
2023-02-25T05:10:47.416Z,2.29
2023-02-25T05:11:49.097Z,2.32
2023-02-25T05:12:51.705Z,2.29
2023-02-25T05:13:55.533Z,2.24
2023-02-25T05:14:58.229Z,2.30
2023-02-25T05:16:06.733Z,2.24
2023-02-25T05:17:09.412Z,2.31
2023-02-25T05:18:11.096Z,2.31
2023-02-25T05:19:16.473Z,2.29
2023-02-25T05:20:18.461Z,2.31
2023-02-25T05:21:23.252Z,2.32
2023-02-25T05:22:25.049Z,2.32
2023-02-25T05:23:27.767Z,2.34
2023-02-25T05:24:30.769Z,2.39
2023-02-25T05:25:33.880Z,2.39
2023-02-25T05:26:35.544Z,2.40
2023-02-25T05:27:38.150Z,2.37
2023-02-25T05:28:40.017Z,2.36
2023-02-25T05:29:42.754Z,2.31
2023-02-25T05:30:44.445Z,2.39
2023-02-25T05:31:47.683Z,2.48
2023-02-25T05:32:49.568Z,2.44
2023-02-25T05:33:52.366Z,2.43
2023-02-25T05:34:54.028Z,2.37
2023-02-25T05:35:56.624Z,2.39
2023-02-25T05:36:58.281Z,2.42
2023-02-25T05:38:00.897Z,2.44
2023-02-25T05:39:03.489Z,2.35
2023-02-25T05:40:09.148Z,2.32
2023-02-25T05:41:10.946Z,2.36
2023-02-25T05:42:13.554Z,2.38
2023-02-25T05:43:15.180Z,2.42
2023-02-25T05:44:17.802Z,2.41
2023-02-25T05:45:19.460Z,2.41
2023-02-25T05:46:22.527Z,2.42
2023-02-25T05:47:24.378Z,2.37
2023-02-25T05:48:26.993Z,2.38
2023-02-25T05:49:28.628Z,2.42
2023-02-25T05:50:31.731Z,2.42
2023-02-25T05:51:33.371Z,2.37
2023-02-25T05:52:35.969Z,2.40
2023-02-25T05:53:37.681Z,2.50
2023-02-25T05:54:40.346Z,2.42
2023-02-25T05:55:43.410Z,2.52
2023-02-25T05:56:46.021Z,2.51
2023-02-25T05:57:47.646Z,2.50
2023-02-25T05:58:50.285Z,2.53
2023-02-25T05:59:51.934Z,2.47
2023-02-25T06:00:54.532Z,2.48
2023-02-25T06:01:56.256Z,2.51
2023-02-25T06:02:58.939Z,2.47
2023-02-25T06:04:01.182Z,2.42
2023-02-25T06:05:03.997Z,2.43
2023-02-25T06:06:06.425Z,2.39
2023-02-25T06:07:09.032Z,2.38
2023-02-25T06:08:10.705Z,2.39
2023-02-25T06:09:13.345Z,2.37
2023-02-25T06:10:14.977Z,2.40
2023-02-25T06:11:23.221Z,2.41
2023-02-25T06:12:24.931Z,2.42
2023-02-25T06:13:27.625Z,2.38
2023-02-25T06:14:29.298Z,2.39
2023-02-25T06:15:31.921Z,2.48
2023-02-25T06:16:34.580Z,2.49
2023-02-25T06:17:36.259Z,2.42
2023-02-25T06:18:39.743Z,2.51
2023-02-25T06:19:41.416Z,2.44
2023-02-25T06:20:44.036Z,2.43
2023-02-25T06:21:45.661Z,2.42
2023-02-25T06:22:48.288Z,2.41
2023-02-25T06:23:50.275Z,2.46
2023-02-25T06:24:53.090Z,2.49
2023-02-25T06:25:54.801Z,2.49
2023-02-25T06:26:58.766Z,2.51
2023-02-25T06:28:00.816Z,2.53
2023-02-25T06:29:03.419Z,2.55
2023-02-25T06:30:05.882Z,2.55
2023-02-25T06:31:09.895Z,2.56
2023-02-25T06:32:11.878Z,2.58
2023-02-25T06:33:14.687Z,2.60
2023-02-25T06:34:16.324Z,2.56
2023-02-25T06:35:23.184Z,2.59
2023-02-25T06:36:25.091Z,2.59
2023-02-25T06:37:27.946Z,2.59
2023-02-25T06:38:29.849Z,2.60
2023-02-25T06:39:32.474Z,2.60
2023-02-25T06:40:34.155Z,2.64
2023-02-25T06:41:36.778Z,2.63
2023-02-25T06:42:39.830Z,2.63
2023-02-25T06:43:42.507Z,2.59
2023-02-25T06:44:44.150Z,2.62
2023-02-25T06:45:46.856Z,2.57
2023-02-25T06:46:50.068Z,2.56
2023-02-25T06:47:52.682Z,2.50
2023-02-25T06:48:54.415Z,2.48
2023-02-25T06:49:57.601Z,2.52
2023-02-25T06:50:59.298Z,2.57
2023-02-25T06:52:02.173Z,2.58
2023-02-25T06:53:03.807Z,2.60
2023-02-25T06:54:06.532Z,2.63
2023-02-25T06:55:09.439Z,2.59
2023-02-25T06:56:12.617Z,2.56
2023-02-25T06:57:14.267Z,2.50
2023-02-25T06:58:18.732Z,2.41
2023-02-25T06:59:20.432Z,2.42
2023-02-25T07:00:23.698Z,2.36
2023-02-25T07:01:25.580Z,2.32
2023-02-25T07:02:28.199Z,2.28
2023-02-25T07:03:29.835Z,2.21
2023-02-25T07:04:32.582Z,2.26
2023-02-25T07:05:34.301Z,2.24
2023-02-25T07:06:36.937Z,2.13
2023-02-25T07:07:38.615Z,2.09
2023-02-25T07:08:41.236Z,2.13
2023-02-25T07:09:43.873Z,2.20
2023-02-25T07:10:45.561Z,2.15
2023-02-25T07:11:48.395Z,2.11
2023-02-25T07:12:50.052Z,2.08
2023-02-25T07:13:54.013Z,2.10
2023-02-25T07:14:55.639Z,2.12
2023-02-25T07:15:58.306Z,2.16
2023-02-25T07:17:00.943Z,2.23
2023-02-25T07:18:02.646Z,2.17
2023-02-25T07:19:05.260Z,2.10
2023-02-25T07:20:08.154Z,2.15
2023-02-25T07:21:12.172Z,2.20
2023-02-25T07:22:15.500Z,2.16
2023-02-25T07:23:17.151Z,2.20
2023-02-25T07:24:19.792Z,2.25
2023-02-25T07:25:21.556Z,2.25
2023-02-25T07:26:26.209Z,2.20
2023-02-25T07:27:28.844Z,2.26
2023-02-25T07:28:30.512Z,2.31
2023-02-25T07:29:34.479Z,2.26
2023-02-25T07:30:36.099Z,2.34
2023-02-25T07:31:38.879Z,2.37
2023-02-25T07:32:40.816Z,2.36
2023-02-25T07:33:43.702Z,2.38
2023-02-25T07:34:45.406Z,2.40
2023-02-25T07:35:48.052Z,2.37
2023-02-25T07:36:49.782Z,2.41
2023-02-25T07:37:52.607Z,2.42
2023-02-25T07:38:54.351Z,2.45
2023-02-25T07:39:59.636Z,2.38
2023-02-25T07:41:04.482Z,2.38
2023-02-25T07:42:07.100Z,2.39
2023-02-25T07:43:08.732Z,2.41
2023-02-25T07:44:11.333Z,2.43
2023-02-25T07:45:14.304Z,2.45
2023-02-25T07:46:17.026Z,2.45
2023-02-25T07:47:19.318Z,2.47
2023-02-25T07:48:21.961Z,2.49
2023-02-25T07:49:23.636Z,2.60
2023-02-25T07:50:26.545Z,2.60
2023-02-25T07:51:28.506Z,2.61
2023-02-25T07:52:31.132Z,2.64
2023-02-25T07:53:33.569Z,2.59
2023-02-25T07:54:36.223Z,2.63
2023-02-25T07:55:37.854Z,2.60
2023-02-25T07:56:40.458Z,2.58
2023-02-25T07:57:42.107Z,2.53
2023-02-25T07:58:44.786Z,2.50
2023-02-25T07:59:46.483Z,2.52
2023-02-25T08:00:50.459Z,2.63
2023-02-25T08:01:52.091Z,2.56
2023-02-25T08:02:54.933Z,2.54
2023-02-25T08:03:59.042Z,2.55
2023-02-25T08:05:01.064Z,2.52
2023-02-25T08:06:07.855Z,2.47
2023-02-25T08:07:09.492Z,2.48
2023-02-25T08:08:13.089Z,2.46
2023-02-25T08:09:15.993Z,2.46
2023-02-25T08:10:18.142Z,2.38
2023-02-25T08:11:21.013Z,2.38
2023-02-25T08:12:23.073Z,2.39
2023-02-25T08:13:25.730Z,2.41
2023-02-25T08:14:27.405Z,2.44
2023-02-25T08:15:30.029Z,2.46
2023-02-25T08:16:33.109Z,2.42
2023-02-25T08:17:35.821Z,2.47
2023-02-25T08:18:37.608Z,2.44
2023-02-25T08:19:40.584Z,2.44
2023-02-25T08:20:45.946Z,2.37
2023-02-25T08:21:48.595Z,2.44
2023-02-25T08:22:50.248Z,2.52
2023-02-25T08:23:52.999Z,2.63
2023-02-25T08:24:54.648Z,2.52
2023-02-25T08:25:57.657Z,2.59
2023-02-25T08:26:59.315Z,2.68
2023-02-25T08:28:01.947Z,2.65
2023-02-25T08:29:03.589Z,2.72
2023-02-25T08:30:08.629Z,2.58
2023-02-25T08:31:12.012Z,2.57
2023-02-25T08:32:16.996Z,2.53
2023-02-25T08:33:18.902Z,2.57
2023-02-25T08:34:21.539Z,2.63
2023-02-25T08:35:23.607Z,2.57
2023-02-25T08:36:27.721Z,2.61
2023-02-25T08:37:29.446Z,2.59
2023-02-25T08:38:32.056Z,2.48
2023-02-25T08:39:35.895Z,2.48
2023-02-25T08:40:39.464Z,2.51
2023-02-25T08:41:42.907Z,2.53
2023-02-25T08:42:44.553Z,2.57
2023-02-25T08:43:49.467Z,2.53
2023-02-25T08:44:51.139Z,2.50
2023-02-25T08:45:53.761Z,2.57
2023-02-25T08:46:55.455Z,2.63
2023-02-25T08:52:37.148Z,2.54
2023-02-25T08:53:39.470Z,2.58
2023-02-25T08:54:42.223Z,2.58
2023-02-25T08:55:44.699Z,2.49
2023-02-25T08:56:47.320Z,2.52
2023-02-25T08:57:48.830Z,2.60
2023-02-25T08:58:51.327Z,2.54
2023-02-25T08:59:52.933Z,2.49
2023-02-25T09:00:55.972Z,2.42
2023-02-25T09:01:58.714Z,2.40
2023-02-25T09:03:00.250Z,2.46
2023-02-25T09:04:02.714Z,2.63
2023-02-25T09:05:05.764Z,2.64
2023-02-25T09:06:07.548Z,2.61
2023-02-25T09:07:10.034Z,2.55
2023-02-25T09:08:12.886Z,2.61
2023-02-25T09:09:15.687Z,2.60
2023-02-25T09:10:17.862Z,2.62
2023-02-25T09:11:20.477Z,2.60
2023-02-25T09:12:24.652Z,2.63
2023-02-25T09:13:27.446Z,2.70
2023-02-25T09:14:29.938Z,2.69
2023-02-25T09:15:32.475Z,2.63
2023-02-25T09:16:35.295Z,2.69
2023-02-25T09:17:37.851Z,2.78
2023-02-25T09:18:39.411Z,2.74
2023-02-25T09:19:41.899Z,2.75
2023-02-25T09:20:43.497Z,2.74
2023-02-25T09:21:47.930Z,2.76
2023-02-25T09:22:49.545Z,2.86
2023-02-25T09:23:53.508Z,2.93
2023-02-25T09:24:55.937Z,2.80
2023-02-25T09:25:58.437Z,2.85
2023-02-25T09:27:01.171Z,2.93
2023-02-25T09:28:02.728Z,2.99
2023-02-25T09:29:05.822Z,3.00
2023-02-25T09:30:10.030Z,3.01
2023-02-25T09:31:12.904Z,3.07
2023-02-25T09:32:17.749Z,3.25
2023-02-25T09:33:19.293Z,3.29
2023-02-25T09:34:21.762Z,3.29
2023-02-25T09:35:23.692Z,3.38
2023-02-25T09:36:26.325Z,3.40
2023-02-25T09:37:27.893Z,3.38
2023-02-25T09:38:30.557Z,3.44
2023-02-25T09:39:34.286Z,3.44
2023-02-25T09:40:37.104Z,3.51
2023-02-25T09:41:43.992Z,3.56
2023-02-25T09:42:51.452Z,3.58
2023-02-25T09:43:59.397Z,3.61
2023-02-25T09:45:02.472Z,3.53
2023-02-25T09:46:06.029Z,3.55
2023-02-25T09:47:13.489Z,3.55
2023-02-25T09:48:16.527Z,3.55
2023-02-25T09:49:21.658Z,3.65
2023-02-25T09:50:24.414Z,3.74
2023-02-25T09:51:28.700Z,3.86
2023-02-25T09:52:32.619Z,4.02
2023-02-25T09:53:35.606Z,4.25
2023-02-25T09:54:41.477Z,4.43
2023-02-25T09:55:44.314Z,4.41
2023-02-25T09:56:46.923Z,4.50
2023-02-25T09:57:59.442Z,4.34
2023-02-25T09:59:02.236Z,4.20
2023-02-25T10:00:09.172Z,4.06
2023-02-25T10:01:15.976Z,3.91
2023-02-25T10:02:22.396Z,3.88
2023-02-25T10:03:26.731Z,3.91
2023-02-25T10:04:33.131Z,3.82
2023-02-25T10:05:39.171Z,3.76
2023-02-25T10:06:44.280Z,3.71
2023-02-25T10:07:53.737Z,3.68
2023-02-25T10:08:58.986Z,3.67
2023-02-25T10:10:06.602Z,3.69
2023-02-25T10:11:10.062Z,3.63
2023-02-25T10:12:19.397Z,3.86
2023-02-25T10:13:26.980Z,4.02
2023-02-25T10:14:57.399Z,3.94
2023-02-25T10:16:02.595Z,3.98
2023-02-25T10:17:08.887Z,3.95
2023-02-25T10:18:15.408Z,3.84
2023-02-25T10:19:25.000Z,3.88
2023-02-25T10:20:39.333Z,3.90
2023-02-25T10:21:55.573Z,4.02
2023-02-25T10:23:00.465Z,4.14
2023-02-25T10:24:13.456Z,4.05
2023-02-25T10:25:19.212Z,4.09
2023-02-25T10:26:23.407Z,4.34
2023-02-25T10:27:27.647Z,4.68
2023-02-25T10:28:30.558Z,5.44
2023-02-25T10:29:38.902Z,5.63
2023-02-25T10:30:47.952Z,5.87
2023-02-25T10:31:50.002Z,6.28
2023-02-25T10:32:53.184Z,7.18
2023-02-25T10:33:54.993Z,7.64
2023-02-25T10:34:59.292Z,7.45
2023-02-25T10:36:03.840Z,7.90
2023-02-25T10:37:06.408Z,7.43
2023-02-25T10:38:09.220Z,7.30
2023-02-25T10:39:12.024Z,7.19
2023-02-25T10:40:17.834Z,7.14
2023-02-25T10:41:22.609Z,7.27
2023-02-25T10:42:26.047Z,7.39
2023-02-25T10:43:28.603Z,7.89
2023-02-25T10:44:31.217Z,8.25
2023-02-25T10:45:33.746Z,7.99
2023-02-25T10:46:37.075Z,7.53
2023-02-25T10:47:40.978Z,6.96
2023-02-25T10:48:43.277Z,6.51
2023-02-25T10:50:16.800Z,5.93
2023-02-25T10:51:18.339Z,5.70
2023-02-25T10:52:21.596Z,5.71
2023-02-25T10:53:24.206Z,5.58
2023-02-25T10:54:26.952Z,5.27
2023-02-25T10:55:41.245Z,4.95
2023-02-25T10:56:44.757Z,4.82
2023-02-25T10:57:46.274Z,4.90
2023-02-25T10:59:01.197Z,5.06
2023-02-25T11:00:05.020Z,5.17
2023-02-25T11:01:10.942Z,5.21
2023-02-25T11:02:23.174Z,5.31
2023-02-25T11:03:24.972Z,5.53
2023-02-25T11:04:30.634Z,5.84
2023-02-25T11:05:36.025Z,6.77
2023-02-25T11:06:38.903Z,6.66
2023-02-25T11:07:41.363Z,6.53
2023-02-25T11:08:44.487Z,6.09
2023-02-25T11:09:47.059Z,6.08
2023-02-25T11:10:58.465Z,6.05
2023-02-25T11:12:01.921Z,6.74
2023-02-25T11:13:05.843Z,6.64
2023-02-25T11:14:14.507Z,6.49
2023-02-25T11:15:43.073Z,6.22
2023-02-25T11:16:47.308Z,6.52
2023-02-25T11:17:48.902Z,7.11
2023-02-25T11:18:56.219Z,7.31
2023-02-25T11:20:00.716Z,7.41
2023-02-25T11:21:03.000Z,6.98
2023-02-25T11:22:09.252Z,6.91
2023-02-25T11:23:13.923Z,7.52
2023-02-25T11:24:17.283Z,7.39
2023-02-25T11:25:20.389Z,7.00
2023-02-25T11:26:30.112Z,6.71
2023-02-25T11:27:37.169Z,7.98
2023-02-25T11:28:41.126Z,9.14
2023-02-25T11:29:43.988Z,8.64
2023-02-25T11:30:45.695Z,8.90
2023-02-25T11:31:49.938Z,8.92
2023-02-25T11:32:54.425Z,9.21
2023-02-25T11:33:57.333Z,8.79
2023-02-25T11:35:04.860Z,8.47
2023-02-25T11:36:07.780Z,7.99
2023-02-25T11:37:35.616Z,7.74
2023-02-25T11:38:38.401Z,7.39
2023-02-25T11:39:40.958Z,6.98
2023-02-25T11:40:44.065Z,6.50
2023-02-25T11:41:49.449Z,6.34
2023-02-25T11:43:17.299Z,6.17
2023-02-25T11:44:27.904Z,5.73
2023-02-25T11:45:29.819Z,5.57
2023-02-25T11:46:33.928Z,5.61
2023-02-25T11:47:37.368Z,5.70
2023-02-25T11:48:46.127Z,5.65
2023-02-25T11:50:05.009Z,5.74
2023-02-25T11:51:14.058Z,5.80
2023-02-25T11:52:19.583Z,5.69
2023-02-25T11:53:29.020Z,5.86
2023-02-25T11:54:36.207Z,5.87
2023-02-25T11:55:45.841Z,6.42
2023-02-25T11:56:51.532Z,6.32
2023-02-25T11:58:02.546Z,6.49
2023-02-25T11:59:15.913Z,6.51
2023-02-25T12:00:25.408Z,6.36
2023-02-25T12:01:35.432Z,6.26
2023-02-25T12:02:42.713Z,5.90
2023-02-25T12:04:07.180Z,5.42
2023-02-25T12:05:24.164Z,5.45
2023-02-25T12:06:32.812Z,5.34
2023-02-25T12:08:12.477Z,5.10
2023-02-25T12:09:45.265Z,4.71
2023-02-25T12:11:01.067Z,4.56
2023-02-25T12:12:52.535Z,4.15
2023-02-25T12:14:10.579Z,4.10
2023-02-25T12:15:31.324Z,4.00
2023-02-25T12:17:07.156Z,3.76
2023-02-25T12:18:54.213Z,3.90
2023-02-25T12:20:47.654Z,4.21
2023-02-25T12:22:14.594Z,4.43
2023-02-25T12:23:43.067Z,4.89
2023-02-25T12:25:01.027Z,4.67
2023-02-25T12:26:06.523Z,4.38
2023-02-25T12:27:43.510Z,4.26
2023-02-25T12:28:58.456Z,4.41
2023-02-25T12:30:20.736Z,4.36
2023-02-25T12:31:40.928Z,4.72
2023-02-25T12:32:53.709Z,5.39
2023-02-25T12:34:06.067Z,5.56
2023-02-25T12:35:23.301Z,4.98
2023-02-25T12:36:42.062Z,6.06
2023-02-25T12:38:04.468Z,6.80
2023-02-25T12:39:18.409Z,7.61
2023-02-25T12:40:30.364Z,6.46
2023-02-25T12:41:40.046Z,8.03
2023-02-25T12:42:51.836Z,8.06
2023-02-25T12:43:56.550Z,8.91
2023-02-25T12:45:03.675Z,8.39
2023-02-25T12:46:35.939Z,9.55
2023-02-25T12:47:46.262Z,10.03
2023-02-25T12:49:19.914Z,9.41
2023-02-25T12:50:29.237Z,8.81
2023-02-25T12:51:40.635Z,7.32
2023-02-25T12:52:49.553Z,6.89
2023-02-25T12:53:54.798Z,6.48
2023-02-25T12:55:10.779Z,6.79
2023-02-25T12:56:20.732Z,6.53
2023-02-25T12:57:31.615Z,6.63
2023-02-25T12:58:43.494Z,7.07
2023-02-25T12:59:56.800Z,9.53
2023-02-25T13:01:31.292Z,7.46
2023-02-25T13:02:44.276Z,6.44
2023-02-25T13:04:03.993Z,5.90
2023-02-25T13:05:26.948Z,5.72
2023-02-25T13:06:38.237Z,5.99
2023-02-25T13:07:48.681Z,5.71
2023-02-25T13:09:01.356Z,5.60
2023-02-25T13:10:11.968Z,5.38
2023-02-25T13:11:20.766Z,5.02
2023-02-25T13:12:32.459Z,5.04
2023-02-25T13:13:53.938Z,5.59
2023-02-25T13:15:04.000Z,5.64
2023-02-25T13:16:18.057Z,5.41
2023-02-25T13:17:34.350Z,5.36
2023-02-25T13:18:40.448Z,6.08
2023-02-25T13:19:54.383Z,6.18
2023-02-25T13:21:14.474Z,5.86
2023-02-25T13:22:20.983Z,5.82
2023-02-25T13:23:32.412Z,5.79
2023-02-25T13:24:41.164Z,5.98
2023-02-25T13:25:51.469Z,5.63
2023-02-25T13:26:59.728Z,6.40
2023-02-25T13:28:15.250Z,5.89
2023-02-25T13:29:28.307Z,5.88
2023-02-25T13:30:35.352Z,5.67
2023-02-25T13:31:42.951Z,5.31
2023-02-25T13:32:48.420Z,5.36
2023-02-25T13:33:58.338Z,6.96
2023-02-25T13:35:10.798Z,6.29
2023-02-25T13:36:25.163Z,7.37
2023-02-25T13:37:37.788Z,6.62
2023-02-25T13:38:51.447Z,7.93
2023-02-25T13:40:05.182Z,8.31
2023-02-25T13:41:15.444Z,7.64
2023-02-25T13:42:31.384Z,11.13
2023-02-25T13:43:52.479Z,10.43
2023-02-25T13:45:23.392Z,7.65
2023-02-25T13:46:35.834Z,8.67
2023-02-25T13:47:49.462Z,9.50
2023-02-25T13:49:18.592Z,8.85
2023-02-25T13:50:34.299Z,8.23
2023-02-25T13:52:01.842Z,8.13
2023-02-25T13:53:27.712Z,6.41
2023-02-25T13:54:58.653Z,6.47
2023-02-25T13:56:16.742Z,5.63
2023-02-25T13:57:26.358Z,5.46
2023-02-25T13:58:45.713Z,5.18
2023-02-25T13:59:56.731Z,4.85
2023-02-25T14:01:26.707Z,4.80
2023-02-25T14:02:42.669Z,5.75
2023-02-25T14:04:26.684Z,6.48
2023-02-25T14:05:41.763Z,6.96
2023-02-25T14:06:49.309Z,7.27
2023-02-25T14:08:12.631Z,6.76
2023-02-25T14:09:35.126Z,7.12
2023-02-25T14:10:45.839Z,8.16
2023-02-25T14:12:03.110Z,8.90
2023-02-25T14:13:34.335Z,10.49
2023-02-25T14:15:03.979Z,10.13
2023-02-25T14:16:09.800Z,11.08
2023-02-25T14:17:32.734Z,11.98
2023-02-25T14:18:53.691Z,12.43
2023-02-25T14:20:03.810Z,12.85
2023-02-25T14:21:17.734Z,12.57
2023-02-25T14:22:36.112Z,12.01
2023-02-25T14:23:44.334Z,10.11
2023-02-25T14:24:48.411Z,8.64
2023-02-25T14:26:06.440Z,8.27
2023-02-25T14:27:20.606Z,6.96
2023-02-25T14:28:28.329Z,6.34
2023-02-25T14:29:35.284Z,5.82
2023-02-25T14:30:41.412Z,5.20
2023-02-25T14:31:54.715Z,5.44
2023-02-25T14:33:10.230Z,5.23
2023-02-25T14:34:28.446Z,5.44
2023-02-25T14:35:37.321Z,5.21
2023-02-25T14:36:50.317Z,7.97
2023-02-25T14:37:56.877Z,8.86
2023-02-25T14:39:10.941Z,8.84
2023-02-25T14:40:29.777Z,8.48
2023-02-25T14:41:36.223Z,8.75
2023-02-25T14:42:54.753Z,8.33